createdAt,value
2022-12-18T00:00:22.077Z,1032.3039408718037
2022-12-18T00:06:43.429Z,1032.3514227638354
2022-12-18T00:13:09.888Z,1032.3418486830428
2022-12-18T00:26:05.509Z,1032.3626272365927
2022-12-18T00:32:28.411Z,1032.3196374595393
2022-12-18T00:38:50.974Z,1032.3032488868184
2022-12-18T00:45:29.817Z,1032.3204013822135
2022-12-18T00:52:22.481Z,1032.2531814187196
2022-12-18T00:58:49.435Z,1032.240835859007
2022-12-18T01:05:16.293Z,1032.2921876783034
2022-12-18T01:11:38.511Z,1032.4036750523144
2022-12-18T01:17:59.674Z,1032.4994178376355
2022-12-18T01:24:24.172Z,1032.610453303751
2022-12-18T01:34:37.353Z,1032.5195463968917
2022-12-18T01:44:36.911Z,1032.7119260446987
2022-12-18T01:50:58.360Z,1032.7106519652916
2022-12-18T01:57:24.443Z,1032.67773249266
2022-12-18T02:03:48.020Z,1032.6686036645483
2022-12-18T02:10:11.538Z,1032.6635540603336
2022-12-18T02:16:33.513Z,1032.6181305206628
2022-12-18T02:32:18.159Z,1032.6457681995971
2022-12-18T02:38:39.987Z,1032.6033899532997
2022-12-18T02:45:06.157Z,1032.4875371804555
2022-12-18T03:03:51.264Z,1032.551962762575
2022-12-18T03:10:13.556Z,1032.645151520215
2022-12-18T03:16:35.477Z,1032.6615819339434
2022-12-18T03:22:57.264Z,1032.6446328791662
2022-12-18T03:29:46.404Z,1032.6431110485412
2022-12-18T03:36:07.108Z,1032.6849434095561
2022-12-18T03:48:34.526Z,1032.6069935953033
2022-12-18T03:57:26.579Z,1032.7628058315413
2022-12-18T04:07:51.866Z,1032.629725251996
2022-12-18T04:16:02.817Z,1032.4770247928761
2022-12-18T04:22:26.768Z,1032.4091032750466
2022-12-18T04:33:06.813Z,1032.4555596700982
2022-12-18T04:39:28.692Z,1032.513945261039
2022-12-18T04:45:50.913Z,1032.557029171788
2022-12-18T04:52:12.087Z,1032.62353127063
2022-12-18T04:58:33.380Z,1032.6368888250483
2022-12-18T05:04:55.329Z,1032.7156389369177
2022-12-18T05:11:17.088Z,1032.7372162667552
2022-12-18T05:20:01.574Z,1032.8255461542817
2022-12-18T05:27:03.970Z,1032.897108201594
2022-12-18T05:33:24.118Z,1033.003973422652
2022-12-18T05:39:44.795Z,1033.0461666392237
2022-12-18T05:46:05.647Z,1033.0295879596154
2022-12-18T05:52:25.601Z,1033.056580811953
2022-12-18T05:58:45.129Z,1032.955029352027
2022-12-18T06:05:05.977Z,1032.9481538894977
2022-12-18T06:11:25.424Z,1032.9152418989552
2022-12-18T06:17:47.263Z,1033.0226097579282
2022-12-18T06:24:08.214Z,1033.1180521196318
2022-12-18T06:32:35.920Z,1033.0654229199527
2022-12-18T06:39:00.719Z,1033.1038410615831
2022-12-18T06:48:39.513Z,1033.1003484469163
2022-12-18T06:55:00.380Z,1033.1893448956673
2022-12-18T07:01:19.821Z,1033.288419910881
2022-12-18T07:11:57.778Z,1033.3448933938025
2022-12-18T07:18:17.446Z,1033.4407182191974
2022-12-18T07:24:39.066Z,1033.4509044669212
2022-12-18T07:31:00.197Z,1033.4735584323066
2022-12-18T07:37:27.491Z,1033.4714208497676
2022-12-18T07:44:51.480Z,1033.5107182965437
2022-12-18T07:54:49.106Z,1033.3325290075545
2022-12-18T08:01:13.604Z,1033.35623584405
2022-12-18T08:07:40.418Z,1033.3100917085906
2022-12-18T08:18:14.410Z,1033.2355905986797
2022-12-18T08:24:42.061Z,1033.2289630262799
2022-12-18T08:38:50.615Z,1033.2967156279758
2022-12-18T08:45:18.167Z,1033.3586278773666
2022-12-18T08:51:47.501Z,1033.2646856814079
2022-12-18T08:58:14.891Z,1033.1606490570443
2022-12-18T09:04:39.129Z,1033.0339923084016
2022-12-18T09:11:04.037Z,1032.9946547517336
2022-12-18T09:24:45.408Z,1033.1344422299492
2022-12-18T09:31:09.706Z,1033.1950617038656
2022-12-18T09:38:45.085Z,1033.2981335546388
2022-12-18T09:45:09.530Z,1033.3409588839002
2022-12-18T09:51:31.962Z,1033.313077767919
2022-12-18T09:57:53.159Z,1033.4443876051114
2022-12-18T10:10:09.511Z,1033.359308682615
2022-12-18T10:17:50.164Z,1033.3768585439254
2022-12-18T10:24:11.879Z,1033.3215367000478
2022-12-18T10:30:33.171Z,1033.2275559885686
2022-12-18T10:36:55.047Z,1033.1398631684233
2022-12-18T10:48:05.305Z,1032.9929438883946
2022-12-18T10:59:22.904Z,1032.89793487681
2022-12-18T11:06:07.276Z,1032.8246151020176
2022-12-18T11:12:29.736Z,1032.5920894543522
2022-12-18T11:18:52.688Z,1032.5245347108228
2022-12-18T11:41:09.784Z,1032.3413590210541
2022-12-18T12:01:23.864Z,1031.787051890755
2022-12-18T12:11:34.002Z,1031.800297298674
2022-12-18T12:25:10.238Z,1031.6784741721292
2022-12-18T12:33:21.811Z,1031.5327761666263
2022-12-18T12:39:54.434Z,1031.4634402142963
2022-12-18T12:46:28.837Z,1031.2535534973279
2022-12-18T12:53:51.247Z,1031.259583546445
2022-12-18T13:00:31.495Z,1031.149317923099
2022-12-18T13:10:27.049Z,1031.251124190077
2022-12-18T13:16:52.978Z,1031.1616166473782
2022-12-18T13:31:54.177Z,1030.8592905912117
2022-12-18T13:38:24.052Z,1030.8134945518193
2022-12-18T13:44:47.117Z,1030.8346239450452
2022-12-18T13:51:12.085Z,1030.7466385722582
2022-12-18T13:57:35.412Z,1030.5363201249145
2022-12-18T14:04:00.867Z,1030.4342163972046
2022-12-18T14:10:47.730Z,1030.3992675505272
2022-12-18T14:17:17.675Z,1030.3834895135171
2022-12-18T14:23:41.954Z,1030.3169749987549
2022-12-18T14:31:50.492Z,1030.162547109325
2022-12-18T14:40:40.904Z,1030.146578915182
2022-12-18T14:48:22.934Z,1029.9951829830513
2022-12-18T14:54:51.091Z,1029.9544874487747
2022-12-18T15:01:17.771Z,1029.8334444262084
2022-12-18T15:07:41.460Z,1029.7116788428484
2022-12-18T15:27:25.820Z,1029.5157535617561
2022-12-18T15:39:13.221Z,1029.3839028076231
2022-12-18T15:45:34.764Z,1029.247802164475
2022-12-18T15:51:55.930Z,1029.1046464247934
2022-12-18T15:59:17.404Z,1029.0992067066916
2022-12-18T16:05:39.952Z,1029.0990553635322
2022-12-18T16:23:25.485Z,1028.8551568278974
2022-12-18T16:29:47.801Z,1028.679704693488
2022-12-18T16:36:10.983Z,1028.5313321154379
2022-12-18T16:46:03.788Z,1028.4904400838243
2022-12-18T17:02:24.537Z,1028.308984600327
2022-12-18T17:08:49.715Z,1028.2470014251658
2022-12-18T17:15:13.453Z,1028.189176338098
2022-12-18T17:21:37.713Z,1028.1864649721601
2022-12-18T17:30:14.775Z,1028.1801037553537
2022-12-18T17:36:38.101Z,1028.0111056412684
2022-12-18T17:43:00.804Z,1027.942965377889
2022-12-18T17:49:56.199Z,1027.6814176989492
2022-12-18T17:58:20.391Z,1027.4582301885941
2022-12-18T18:04:42.210Z,1027.345374623321
2022-12-18T18:11:08.774Z,1027.2520900866427
2022-12-18T18:18:28.080Z,1027.207082142407
2022-12-18T18:24:50.145Z,1027.1000235847907
2022-12-18T18:31:13.040Z,1026.8477187657343
2022-12-18T18:37:35.233Z,1026.815565369615
2022-12-18T18:43:58.770Z,1026.7901675625133
2022-12-18T18:50:21.304Z,1026.6543073686364
2022-12-18T18:57:19.042Z,1026.489227351667
2022-12-18T19:03:42.158Z,1026.3964925529021
2022-12-18T19:17:29.532Z,1026.2716395989335
2022-12-18T19:23:52.068Z,1026.346566139296
2022-12-18T19:30:22.509Z,1026.4359346388164
2022-12-18T19:48:41.789Z,1026.5166059647988
2022-12-18T19:55:04.481Z,1026.6718865104776
2022-12-18T20:07:28.380Z,1026.3933158152452
2022-12-18T20:13:54.179Z,1026.4728098702556
2022-12-18T20:34:48.658Z,1026.4365404253076
2022-12-18T20:41:38.258Z,1026.4073260624377
2022-12-18T20:48:23.569Z,1026.420049737942
2022-12-18T20:56:59.346Z,1026.2795607008907
2022-12-18T21:03:33.799Z,1026.1983088979446
2022-12-18T21:10:12.580Z,1026.243375742292
2022-12-18T21:20:00.390Z,1026.1579254837823
2022-12-18T21:26:20.757Z,1026.011700448788
2022-12-18T21:32:41.528Z,1025.8999530508945
2022-12-18T21:44:44.501Z,1025.8168441525963
2022-12-18T21:51:03.896Z,1025.7751186940586
2022-12-18T21:57:27.509Z,1025.7565560023081
2022-12-18T22:08:07.386Z,1025.5836701341204
2022-12-18T22:14:27.835Z,1025.591906868128
2022-12-18T22:20:49.223Z,1025.5781525529728
2022-12-18T22:27:10.493Z,1025.5225940573691
2022-12-18T22:33:30.767Z,1025.4482815619722
2022-12-18T22:39:51.271Z,1025.3444789679747
2022-12-18T22:46:13.990Z,1025.2547887118762
2022-12-18T22:52:35.184Z,1025.2359778641842
2022-12-18T22:58:55.454Z,1025.2156696412806
2022-12-18T23:05:16.215Z,1025.2069860800293
2022-12-18T23:11:36.013Z,1025.138857277637
2022-12-18T23:17:57.144Z,1025.0981981654625
2022-12-18T23:24:17.997Z,1024.854752382162
2022-12-18T23:30:38.588Z,1024.7626167440255
2022-12-18T23:36:57.893Z,1024.6174341273088
2022-12-18T23:43:18.947Z,1024.5472129196546
2022-12-18T23:50:06.784Z,1024.4457354824433
2022-12-18T23:56:28.394Z,1024.33459838496
